Erie International Tom Ridge Field Erie US
ICAO: KERI
IATA: ERI
Category: Large
Scheduled Services: Yes

Elevation: 732 ft
TransAlt. 18000 ft.

Airport Communications:
APP/DEP:121
ATIS:120.35
CLNC DEL:126.8
CTAF:118.1
GND:121.9
ALTOONA RDO:109.4
TWR:118.1
UNICOM:122.95

KERI Zoom In..

If you have problems with the map follow the link
https://www.worldairports.se/pages/airport.php?
ICAO=KERI

Runways:

(A) RW 02 length 3508 ft width 150 ft
---- / hdg 20

(B) RW 06 length 8420 ft width 150 ft
ILS 110.30 / hdg 64

(C) RW 20 length 3508 ft width 150 ft
---- / hdg 200

(D) RW 24 length 8420 ft width 150 ft
ILS 110.30 / hdg 244

Location; KERI
Day. 22 / Time. 15.51 Zulu
* Altimeter: 30.45
* Temperature: 02° c. 35.6°f.
* Wind from: 340° Speed 04 kn.
Dewpoint: -04° c.
Visibility: 9 Statute Miles.
Clouds: Clear (automated report).

KERI 221551Z 34004KT 9SM CLR 02/M04 A3045 RMK AO2 SLP319 T00171044


Wind From 340°
Speed 04 kn.

 
 
jpsmedia.com for Web Design worldairports.se 2019   terms of use